sensor_id;sensor_type;location;lat;lon;timestamp;pressure;altitude;pressure_sealevel;temperature;humidity
163;BME280;3946;48.958;8.284;2023-05-18T00:01:19;101165.44;;;7.78;99.79
163;BME280;3946;48.958;8.284;2023-05-18T00:04:05;101171.19;;;8.06;99.02
163;BME280;3946;48.958;8.284;2023-05-18T00:06:51;101166.84;;;8.06;98.70
163;BME280;3946;48.958;8.284;2023-05-18T00:09:40;101153.69;;;8.13;97.62
163;BME280;3946;48.958;8.284;2023-05-18T00:12:26;101151.38;;;7.85;98.29
163;BME280;3946;48.958;8.284;2023-05-18T00:15:12;101158.81;;;7.70;99.48
163;BME280;3946;48.958;8.284;2023-05-18T00:17:57;101152.28;;;7.84;99.61
163;BME280;3946;48.958;8.284;2023-05-18T00:20:42;101148.50;;;7.92;97.96
163;BME280;3946;48.958;8.284;2023-05-18T00:23:29;101138.41;;;7.86;98.69
163;BME280;3946;48.958;8.284;2023-05-18T00:26:15;101145.94;;;7.92;97.46
163;BME280;3946;48.958;8.284;2023-05-18T00:29:02;101142.38;;;7.51;98.34
163;BME280;3946;48.958;8.284;2023-05-18T00:31:48;101143.53;;;7.44;99.75
163;BME280;3946;48.958;8.284;2023-05-18T00:34:36;101142.38;;;7.73;98.54
163;BME280;3946;48.958;8.284;2023-05-18T00:37:21;101139.50;;;7.59;98.07
163;BME280;3946;48.958;8.284;2023-05-18T00:40:08;101143.22;;;7.73;97.94
163;BME280;3946;48.958;8.284;2023-05-18T00:42:54;101128.81;;;7.68;96.40
163;BME280;3946;48.958;8.284;2023-05-18T00:45:41;101140.47;;;7.56;96.70
163;BME280;3946;48.958;8.284;2023-05-18T00:48:26;101134.75;;;7.48;97.44
163;BME280;3946;48.958;8.284;2023-05-18T00:51:12;101146.09;;;7.21;98.47
163;BME280;3946;48.958;8.284;2023-05-18T00:53:58;101147.53;;;7.29;99.26
163;BME280;3946;48.958;8.284;2023-05-18T00:56:54;101151.41;;;7.16;98.52
163;BME280;3946;48.958;8.284;2023-05-18T00:59:39;101143.59;;;7.19;98.73
163;BME280;3946;48.958;8.284;2023-05-18T01:02:38;101153.72;;;7.00;98.84
163;BME280;3946;48.958;8.284;2023-05-18T01:05:27;101150.28;;;7.00;99.28
163;BME280;3946;48.958;8.284;2023-05-18T01:08:15;101141.47;;;7.07;99.05
163;BME280;3946;48.958;8.284;2023-05-18T01:11:05;101141.47;;;7.07;98.72
163;BME280;3946;48.958;8.284;2023-05-18T01:13:59;101148.75;;;7.19;98.76
163;BME280;3946;48.958;8.284;2023-05-18T01:16:50;101144.41;;;7.43;97.69
163;BME280;3946;48.958;8.284;2023-05-18T01:20:10;101141.31;;;7.33;97.45
163;BME280;3946;48.958;8.284;2023-05-18T01:23:05;101147.00;;;7.43;97.24
163;BME280;3946;48.958;8.284;2023-05-18T01:26:06;101145.78;;;7.07;96.62
163;BME280;3946;48.958;8.284;2023-05-18T01:28:59;101148.00;;;6.92;98.13
163;BME280;3946;48.958;8.284;2023-05-18T01:31:45;101151.63;;;6.87;98.60
163;BME280;3946;48.958;8.284;2023-05-18T01:34:30;101152.16;;;6.96;98.46
163;BME280;3946;48.958;8.284;2023-05-18T01:37:16;101146.97;;;6.98;98.34
163;BME280;3946;48.958;8.284;2023-05-18T01:40:04;101139.53;;;6.89;97.98
163;BME280;3946;48.958;8.284;2023-05-18T01:42:58;101147.06;;;6.70;98.00
163;BME280;3946;48.958;8.284;2023-05-18T01:45:50;101142.56;;;6.77;98.72
163;BME280;3946;48.958;8.284;2023-05-18T01:48:43;101141.94;;;6.70;98.66
163;BME280;3946;48.958;8.284;2023-05-18T01:51:32;101143.50;;;6.74;99.23
163;BME280;3946;48.958;8.284;2023-05-18T01:54:21;101136.34;;;6.82;98.93
163;BME280;3946;48.958;8.284;2023-05-18T01:57:07;101133.78;;;6.57;99.11
163;BME280;3946;48.958;8.284;2023-05-18T01:59:55;101137.13;;;6.35;99.72
163;BME280;3946;48.958;8.284;2023-05-18T02:02:43;101140.72;;;6.30;100.00
163;BME280;3946;48.958;8.284;2023-05-18T02:05:31;101133.84;;;6.31;100.00
163;BME280;3946;48.958;8.284;2023-05-18T02:08:16;101132.50;;;6.19;100.00
163;BME280;3946;48.958;8.284;2023-05-18T02:11:01;101133.66;;;6.11;100.00
163;BME280;3946;48.958;8.284;2023-05-18T02:13:47;101131.97;;;6.10;100.00
163;BME280;3946;48.958;8.284;2023-05-18T02:16:34;101126.66;;;6.16;100.00
163;BME280;3946;48.958;8.284;2023-05-18T02:19:19;101131.78;;;6.16;100.00
163;BME280;3946;48.958;8.284;2023-05-18T02:22:06;101125.75;;;6.17;100.00
163;BME280;3946;48.958;8.284;2023-05-18T02:24:52;101129.94;;;5.93;100.00
163;BME280;3946;48.958;8.284;2023-05-18T02:27:38;101135.34;;;6.12;100.00
163;BME280;3946;48.958;8.284;2023-05-18T02:30:23;101133.53;;;6.15;100.00
163;BME280;3946;48.958;8.284;2023-05-18T02:33:10;101124.97;;;6.40;100.00
163;BME280;3946;48.958;8.284;2023-05-18T02:35:55;101125.44;;;6.26;100.00
163;BME280;3946;48.958;8.284;2023-05-18T02:38:42;101120.47;;;6.20;100.00
163;BME280;3946;48.958;8.284;2023-05-18T02:41:28;101121.38;;;6.19;100.00
163;BME280;3946;48.958;8.284;2023-05-18T02:44:13;101123.56;;;6.31;100.00
163;BME280;3946;48.958;8.284;2023-05-18T02:46:59;101116.41;;;6.14;100.00
163;BME280;3946;48.958;8.284;2023-05-18T02:49:46;101125.38;;;6.01;100.00
163;BME280;3946;48.958;8.284;2023-05-18T02:52:31;101121.41;;;5.92;100.00
163;BME280;3946;48.958;8.284;2023-05-18T02:55:19;101121.50;;;5.88;100.00
163;BME280;3946;48.958;8.284;2023-05-18T02:58:17;101127.13;;;6.27;100.00
163;BME280;3946;48.958;8.284;2023-05-18T03:01:14;101125.75;;;6.17;100.00
163;BME280;3946;48.958;8.284;2023-05-18T03:04:06;101115.25;;;6.23;100.00
163;BME280;3946;48.958;8.284;2023-05-18T03:06:57;101116.41;;;6.39;100.00
163;BME280;3946;48.958;8.284;2023-05-18T03:09:45;101114.47;;;6.46;100.00
163;BME280;3946;48.958;8.284;2023-05-18T03:12:31;101115.97;;;6.51;99.20
163;BME280;3946;48.958;8.284;2023-05-18T03:15:16;101119.38;;;6.52;99.54
163;BME280;3946;48.958;8.284;2023-05-18T03:18:02;101116.09;;;6.48;98.93
163;BME280;3946;48.958;8.284;2023-05-18T03:20:48;101125.06;;;6.37;99.38
163;BME280;3946;48.958;8.284;2023-05-18T03:23:36;101125.72;;;6.43;99.44
163;BME280;3946;48.958;8.284;2023-05-18T03:26:22;101127.25;;;6.22;99.52
163;BME280;3946;48.958;8.284;2023-05-18T03:29:09;101120.25;;;6.01;100.00
163;BME280;3946;48.958;8.284;2023-05-18T03:31:57;101124.91;;;6.16;100.00
163;BME280;3946;48.958;8.284;2023-05-18T03:34:42;101117.44;;;6.33;100.00
163;BME280;3946;48.958;8.284;2023-05-18T03:37:28;101122.19;;;6.46;99.63
163;BME280;3946;48.958;8.284;2023-05-18T03:40:15;101119.66;;;6.44;99.32
163;BME280;3946;48.958;8.284;2023-05-18T03:43:01;101127.41;;;6.44;99.14
163;BME280;3946;48.958;8.284;2023-05-18T03:45:47;101126.00;;;6.34;99.13
163;BME280;3946;48.958;8.284;2023-05-18T03:48:33;101129.38;;;6.36;99.13
163;BME280;3946;48.958;8.284;2023-05-18T03:51:19;101132.59;;;6.43;98.63
163;BME280;3946;48.958;8.284;2023-05-18T03:54:04;101136.69;;;6.48;97.88
163;BME280;3946;48.958;8.284;2023-05-18T03:56:51;101137.84;;;6.40;97.62
163;BME280;3946;48.958;8.284;2023-05-18T03:59:36;101146.53;;;6.36;98.84
163;BME280;3946;48.958;8.284;2023-05-18T04:02:22;101140.88;;;6.26;98.55
163;BME280;3946;48.958;8.284;2023-05-18T04:05:07;101146.25;;;6.18;99.29
163;BME280;3946;48.958;8.284;2023-05-18T04:07:53;101146.88;;;6.26;98.99
163;BME280;3946;48.958;8.284;2023-05-18T04:10:43;101151.97;;;6.28;99.94
163;BME280;3946;48.958;8.284;2023-05-18T04:13:31;101154.63;;;6.50;98.21
163;BME280;3946;48.958;8.284;2023-05-18T04:16:16;101152.91;;;6.50;97.54
163;BME280;3946;48.958;8.284;2023-05-18T04:19:02;101154.25;;;6.62;98.21
163;BME280;3946;48.958;8.284;2023-05-18T04:21:48;101156.81;;;6.62;97.58
163;BME280;3946;48.958;8.284;2023-05-18T04:24:35;101158.91;;;6.76;97.70
163;BME280;3946;48.958;8.284;2023-05-18T04:27:21;101173.25;;;6.83;97.45
163;BME280;3946;48.958;8.284;2023-05-18T04:30:10;101167.38;;;7.02;96.94
163;BME280;3946;48.958;8.284;2023-05-18T04:32:59;101174.28;;;7.25;95.37
163;BME280;3946;48.958;8.284;2023-05-18T04:35:47;101179.47;;;7.47;94.57
163;BME280;3946;48.958;8.284;2023-05-18T04:38:32;101171.78;;;7.69;93.74
163;BME280;3946;48.958;8.284;2023-05-18T04:41:19;101161.28;;;7.95;91.95
163;BME280;3946;48.958;8.284;2023-05-18T04:44:05;101163.41;;;8.28;91.55
163;BME280;3946;48.958;8.284;2023-05-18T04:46:52;101148.34;;;8.98;87.25
163;BME280;3946;48.958;8.284;2023-05-18T04:49:37;101137.72;;;9.42;83.80
163;BME280;3946;48.958;8.284;2023-05-18T04:52:23;101128.88;;;9.83;81.61
163;BME280;3946;48.958;8.284;2023-05-18T04:55:09;101118.97;;;10.09;80.31
163;BME280;3946;48.958;8.284;2023-05-18T04:57:55;101105.69;;;10.51;78.57
163;BME280;3946;48.958;8.284;2023-05-18T05:00:41;101110.25;;;10.79;76.95
163;BME280;3946;48.958;8.284;2023-05-18T05:03:29;101087.41;;;11.18;74.94
163;BME280;3946;48.958;8.284;2023-05-18T05:06:14;101085.13;;;11.44;73.38
163;BME280;3946;48.958;8.284;2023-05-18T05:08:59;101094.59;;;11.45;73.78
163;BME280;3946;48.958;8.284;2023-05-18T05:11:45;101052.94;;;12.08;71.34
163;BME280;3946;48.958;8.284;2023-05-18T05:14:30;101048.06;;;12.46;70.03
163;BME280;3946;48.958;8.284;2023-05-18T05:17:15;101045.38;;;12.33;69.46
163;BME280;3946;48.958;8.284;2023-05-18T05:20:03;101039.50;;;12.58;68.96
163;BME280;3946;48.958;8.284;2023-05-18T05:22:49;101033.19;;;12.76;68.07
163;BME280;3946;48.958;8.284;2023-05-18T05:25:39;101058.72;;;12.55;68.79
163;BME280;3946;48.958;8.284;2023-05-18T05:28:24;101002.50;;;12.95;66.37
163;BME280;3946;48.958;8.284;2023-05-18T05:31:10;101023.50;;;12.92;67.11
163;BME280;3946;48.958;8.284;2023-05-18T05:33:55;101011.66;;;13.15;66.16
163;BME280;3946;48.958;8.284;2023-05-18T05:36:42;100986.47;;;13.16;64.91
163;BME280;3946;48.958;8.284;2023-05-18T05:39:27;100998.81;;;13.26;65.28
163;BME280;3946;48.958;8.284;2023-05-18T05:42:13;100986.00;;;13.23;64.36
163;BME280;3946;48.958;8.284;2023-05-18T05:44:58;101001.66;;;12.95;65.10
163;BME280;3946;48.958;8.284;2023-05-18T05:47:45;101017.91;;;12.99;65.43
163;BME280;3946;48.958;8.284;2023-05-18T05:50:31;101012.59;;;13.00;65.08
163;BME280;3946;48.958;8.284;2023-05-18T05:53:20;101028.78;;;12.91;65.84
163;BME280;3946;48.958;8.284;2023-05-18T05:56:06;100995.03;;;13.04;64.30
163;BME280;3946;48.958;8.284;2023-05-18T05:58:56;100989.81;;;13.04;63.97
163;BME280;3946;48.958;8.284;2023-05-18T06:01:41;101001.94;;;12.90;64.55
163;BME280;3946;48.958;8.284;2023-05-18T06:04:26;101026.50;;;13.27;64.82
163;BME280;3946;48.958;8.284;2023-05-18T06:07:12;100995.72;;;12.93;63.64
163;BME280;3946;48.958;8.284;2023-05-18T06:09:59;101056.69;;;12.02;66.32
163;BME280;3946;48.958;8.284;2023-05-18T06:12:44;101071.28;;;12.49;67.04
163;BME280;3946;48.958;8.284;2023-05-18T06:15:30;101037.91;;;12.84;65.76
163;BME280;3946;48.958;8.284;2023-05-18T06:18:15;101053.13;;;12.19;65.95
163;BME280;3946;48.958;8.284;2023-05-18T06:21:02;101082.66;;;12.32;67.52
163;BME280;3946;48.958;8.284;2023-05-18T06:23:47;101067.84;;;12.48;66.90
163;BME280;3946;48.958;8.284;2023-05-18T06:26:47;101056.44;;;12.07;66.47
163;BME280;3946;48.958;8.284;2023-05-18T06:29:44;101075.28;;;12.10;67.16
163;BME280;3946;48.958;8.284;2023-05-18T06:32:53;101064.22;;;12.07;66.83
163;BME280;3946;48.958;8.284;2023-05-18T06:35:38;101080.19;;;12.01;67.92
163;BME280;3946;48.958;8.284;2023-05-18T06:38:25;101065.81;;;12.09;67.11
163;BME280;3946;48.958;8.284;2023-05-18T06:41:10;101090.47;;;12.32;67.78
163;BME280;3946;48.958;8.284;2023-05-18T06:43:57;101064.00;;;12.54;66.32
163;BME280;3946;48.958;8.284;2023-05-18T06:46:52;101025.94;;;12.67;65.16
163;BME280;3946;48.958;8.284;2023-05-18T06:49:42;101026.59;;;12.56;65.22
163;BME280;3946;48.958;8.284;2023-05-18T06:52:28;101027.50;;;12.84;65.36
163;BME280;3946;48.958;8.284;2023-05-18T06:55:14;100998.38;;;12.65;63.87
163;BME280;3946;48.958;8.284;2023-05-18T06:58:00;101022.16;;;12.58;64.77
163;BME280;3946;48.958;8.284;2023-05-18T07:00:47;101019.25;;;12.77;64.03
163;BME280;3946;48.958;8.284;2023-05-18T07:03:33;100991.09;;;12.84;63.95
163;BME280;3946;48.958;8.284;2023-05-18T07:06:20;100995.72;;;12.93;63.70
163;BME280;3946;48.958;8.284;2023-05-18T07:09:05;100992.66;;;13.27;63.13
163;BME280;3946;48.958;8.284;2023-05-18T07:11:51;100985.19;;;13.36;62.34
163;BME280;3946;48.958;8.284;2023-05-18T07:14:37;100996.50;;;13.22;62.84
163;BME280;3946;48.958;8.284;2023-05-18T07:17:23;100992.91;;;13.37;62.64
163;BME280;3946;48.958;8.284;2023-05-18T07:20:09;101005.72;;;13.40;62.83
163;BME280;3946;48.958;8.284;2023-05-18T07:22:54;100992.81;;;13.39;61.92
163;BME280;3946;48.958;8.284;2023-05-18T07:25:39;100995.34;;;13.53;62.73
163;BME280;3946;48.958;8.284;2023-05-18T07:28:25;100991.97;;;13.38;62.53
163;BME280;3946;48.958;8.284;2023-05-18T07:31:10;100981.94;;;13.32;62.24
163;BME280;3946;48.958;8.284;2023-05-18T07:33:58;100964.09;;;13.53;61.56
163;BME280;3946;48.958;8.284;2023-05-18T07:36:43;100950.97;;;13.54;60.82
163;BME280;3946;48.958;8.284;2023-05-18T07:39:28;100950.78;;;13.70;60.80
163;BME280;3946;48.958;8.284;2023-05-18T07:42:14;100970.28;;;14.02;61.16
163;BME280;3946;48.958;8.284;2023-05-18T07:44:59;100933.69;;;14.04;60.09
163;BME280;3946;48.958;8.284;2023-05-18T07:47:44;100934.13;;;14.11;60.09
163;BME280;3946;48.958;8.284;2023-05-18T07:50:30;100957.47;;;14.12;60.86
163;BME280;3946;48.958;8.284;2023-05-18T07:53:20;100925.56;;;14.21;59.55
163;BME280;3946;48.958;8.284;2023-05-18T07:56:05;100917.75;;;14.09;59.25
163;BME280;3946;48.958;8.284;2023-05-18T07:58:51;100947.97;;;13.98;60.52
163;BME280;3946;48.958;8.284;2023-05-18T08:01:36;100940.00;;;14.38;59.95
163;BME280;3946;48.958;8.284;2023-05-18T08:04:21;100902.34;;;14.55;58.67
163;BME280;3946;48.958;8.284;2023-05-18T08:07:07;100921.78;;;14.75;58.73
163;BME280;3946;48.958;8.284;2023-05-18T08:09:53;100922.75;;;14.24;59.02
163;BME280;3946;48.958;8.284;2023-05-18T08:12:38;100927.34;;;14.08;59.02
163;BME280;3946;48.958;8.284;2023-05-18T08:15:23;100954.94;;;14.49;60.26
163;BME280;3946;48.958;8.284;2023-05-18T08:18:08;100942.34;;;15.03;59.68
163;BME280;3946;48.958;8.284;2023-05-18T08:20:53;100908.72;;;15.22;57.89
163;BME280;3946;48.958;8.284;2023-05-18T08:23:39;100914.69;;;15.00;58.19
163;BME280;3946;48.958;8.284;2023-05-18T08:26:25;100921.28;;;15.17;58.69
163;BME280;3946;48.958;8.284;2023-05-18T08:29:10;100887.03;;;15.33;57.68
163;BME280;3946;48.958;8.284;2023-05-18T08:31:55;100888.72;;;15.10;57.54
163;BME280;3946;48.958;8.284;2023-05-18T08:34:40;100920.19;;;15.09;58.61
163;BME280;3946;48.958;8.284;2023-05-18T08:37:26;100898.50;;;15.19;57.89
163;BME280;3946;48.958;8.284;2023-05-18T08:40:13;100917.53;;;15.44;58.38
163;BME280;3946;48.958;8.284;2023-05-18T08:43:01;100907.19;;;14.96;58.51
163;BME280;3946;48.958;8.284;2023-05-18T08:45:47;100906.31;;;15.08;58.23
163;BME280;3946;48.958;8.284;2023-05-18T08:48:34;100914.06;;;15.21;58.38
163;BME280;3946;48.958;8.284;2023-05-18T08:51:20;100904.91;;;15.26;58.02
163;BME280;3946;48.958;8.284;2023-05-18T08:54:06;100916.50;;;15.46;58.53
163;BME280;3946;48.958;8.284;2023-05-18T08:56:53;100885.34;;;15.78;57.44
163;BME280;3946;48.958;8.284;2023-05-18T08:59:39;100868.47;;;15.60;57.09
163;BME280;3946;48.958;8.284;2023-05-18T09:02:26;100893.22;;;15.43;57.77
163;BME280;3946;48.958;8.284;2023-05-18T09:05:11;100876.59;;;15.44;57.33
163;BME280;3946;48.958;8.284;2023-05-18T09:07:57;100884.53;;;16.00;57.38
163;BME280;3946;48.958;8.284;2023-05-18T09:10:43;100867.53;;;15.83;56.59
163;BME280;3946;48.958;8.284;2023-05-18T09:13:30;100875.75;;;15.90;57.37
163;BME280;3946;48.958;8.284;2023-05-18T09:16:15;100869.91;;;16.20;57.00
163;BME280;3946;48.958;8.284;2023-05-18T09:19:00;100864.41;;;16.34;56.56
163;BME280;3946;48.958;8.284;2023-05-18T09:21:45;100850.25;;;16.36;56.40
163;BME280;3946;48.958;8.284;2023-05-18T09:24:30;100850.03;;;16.39;56.02
163;BME280;3946;48.958;8.284;2023-05-18T09:27:16;100853.25;;;16.21;56.30
163;BME280;3946;48.958;8.284;2023-05-18T09:30:03;100855.66;;;16.67;56.01
163;BME280;3946;48.958;8.284;2023-05-18T09:32:48;100836.22;;;16.81;55.70
163;BME280;3946;48.958;8.284;2023-05-18T09:35:33;100836.03;;;16.61;55.43
163;BME280;3946;48.958;8.284;2023-05-18T09:38:20;100860.25;;;16.86;56.56
163;BME280;3946;48.958;8.284;2023-05-18T09:41:08;100837.31;;;17.40;55.36
163;BME280;3946;48.958;8.284;2023-05-18T09:43:53;100813.69;;;17.10;54.55
163;BME280;3946;48.958;8.284;2023-05-18T09:46:40;100812.59;;;17.33;54.54
163;BME280;3946;48.958;8.284;2023-05-18T09:49:27;100807.72;;;17.80;54.09
163;BME280;3946;48.958;8.284;2023-05-18T09:52:12;100782.50;;;17.58;53.24
163;BME280;3946;48.958;8.284;2023-05-18T09:54:57;100793.84;;;17.38;53.75
163;BME280;3946;48.958;8.284;2023-05-18T09:57:44;100780.84;;;17.06;53.08
163;BME280;3946;48.958;8.284;2023-05-18T10:00:29;100773.38;;;17.22;52.86
163;BME280;3946;48.958;8.284;2023-05-18T10:03:17;100763.59;;;17.55;52.46
163;BME280;3946;48.958;8.284;2023-05-18T10:06:05;100759.63;;;17.60;52.60
163;BME280;3946;48.958;8.284;2023-05-18T10:08:50;100760.56;;;16.98;52.32
163;BME280;3946;48.958;8.284;2023-05-18T10:11:35;100783.19;;;16.99;53.16
163;BME280;3946;48.958;8.284;2023-05-18T10:14:22;100774.41;;;17.31;52.93
163;BME280;3946;48.958;8.284;2023-05-18T10:17:07;100775.78;;;16.52;53.11
163;BME280;3946;48.958;8.284;2023-05-18T10:19:55;100787.97;;;16.62;53.29
163;BME280;3946;48.958;8.284;2023-05-18T10:22:41;100763.31;;;17.18;52.06
163;BME280;3946;48.958;8.284;2023-05-18T10:25:28;100724.06;;;17.27;50.44
163;BME280;3946;48.958;8.284;2023-05-18T10:28:16;100719.41;;;17.71;50.50
163;BME280;3946;48.958;8.284;2023-05-18T10:31:02;100733.50;;;17.79;51.16
163;BME280;3946;48.958;8.284;2023-05-18T10:33:48;100714.66;;;18.34;50.25
163;BME280;3946;48.958;8.284;2023-05-18T10:36:35;100686.63;;;18.34;49.20
163;BME280;3946;48.958;8.284;2023-05-18T10:39:20;100716.19;;;18.17;49.36
163;BME280;3946;48.958;8.284;2023-05-18T10:42:05;100726.50;;;18.09;49.33
163;BME280;3946;48.958;8.284;2023-05-18T10:44:51;100702.50;;;18.13;48.53
163;BME280;3946;48.958;8.284;2023-05-18T10:47:37;100725.28;;;18.13;49.18
163;BME280;3946;48.958;8.284;2023-05-18T10:50:25;100706.22;;;18.30;48.36
163;BME280;3946;48.958;8.284;2023-05-18T10:53:11;100719.34;;;18.11;49.25
163;BME280;3946;48.958;8.284;2023-05-18T10:55:56;100719.88;;;17.86;49.04
163;BME280;3946;48.958;8.284;2023-05-18T10:58:41;100717.13;;;18.06;49.14
163;BME280;3946;48.958;8.284;2023-05-18T11:01:28;100719.13;;;17.74;49.17
163;BME280;3946;48.958;8.284;2023-05-18T11:04:14;100722.19;;;17.89;49.37
163;BME280;3946;48.958;8.284;2023-05-18T11:07:00;100699.88;;;18.42;48.27
163;BME280;3946;48.958;8.284;2023-05-18T11:09:47;100727.06;;;18.22;49.60
163;BME280;3946;48.958;8.284;2023-05-18T11:12:32;100701.53;;;18.14;48.56
163;BME280;3946;48.958;8.284;2023-05-18T11:15:17;100705.22;;;17.83;49.00
163;BME280;3946;48.958;8.284;2023-05-18T11:18:11;100694.91;;;18.49;48.27
163;BME280;3946;48.958;8.284;2023-05-18T11:20:56;100626.81;;;19.21;45.70
163;BME280;3946;48.958;8.284;2023-05-18T11:23:42;100652.25;;;18.94;46.51
163;BME280;3946;48.958;8.284;2023-05-18T11:26:28;100657.34;;;18.48;47.11
163;BME280;3946;48.958;8.284;2023-05-18T11:29:18;100710.19;;;18.53;48.76
163;BME280;3946;48.958;8.284;2023-05-18T11:32:04;100697.63;;;18.57;48.20
163;BME280;3946;48.958;8.284;2023-05-18T11:35:04;100685.88;;;18.51;47.83
163;BME280;3946;48.958;8.284;2023-05-18T11:37:53;100686.34;;;18.66;47.76
163;BME280;3946;48.958;8.284;2023-05-18T11:40:45;100647.84;;;18.84;46.69
163;BME280;3946;48.958;8.284;2023-05-18T11:43:32;100654.25;;;19.09;46.78
163;BME280;3946;48.958;8.284;2023-05-18T11:46:17;100639.31;;;18.73;46.20
163;BME280;3946;48.958;8.284;2023-05-18T11:49:02;100690.47;;;18.40;47.98
163;BME280;3946;48.958;8.284;2023-05-18T11:54:52;100710.34;;;18.52;48.80
163;BME280;3946;48.958;8.284;2023-05-18T11:57:37;100666.28;;;19.39;47.48
163;BME280;3946;48.958;8.284;2023-05-18T12:00:24;100679.47;;;19.30;47.48
163;BME280;3946;48.958;8.284;2023-05-18T12:03:09;100624.03;;;19.23;45.58
163;BME280;3946;48.958;8.284;2023-05-18T12:05:56;100651.91;;;19.06;46.55
163;BME280;3946;48.958;8.284;2023-05-18T12:08:44;100656.22;;;18.41;46.70
163;BME280;3946;48.958;8.284;2023-05-18T12:11:29;100675.56;;;18.60;46.89
163;BME280;3946;48.958;8.284;2023-05-18T12:14:16;100674.28;;;18.73;47.02
163;BME280;3946;48.958;8.284;2023-05-18T12:17:03;100625.03;;;18.85;45.71
163;BME280;3946;48.958;8.284;2023-05-18T12:19:48;100626.28;;;19.18;45.56
163;BME280;3946;48.958;8.284;2023-05-18T12:22:34;100635.72;;;19.11;45.94
163;BME280;3946;48.958;8.284;2023-05-18T12:25:20;100620.84;;;19.74;45.62
163;BME280;3946;48.958;8.284;2023-05-18T12:28:06;100613.47;;;19.15;45.14
163;BME280;3946;48.958;8.284;2023-05-18T12:30:54;100624.16;;;19.31;46.03
163;BME280;3946;48.958;8.284;2023-05-18T12:33:42;100623.31;;;19.31;45.89
163;BME280;3946;48.958;8.284;2023-05-18T12:36:27;100567.97;;;19.60;44.02
163;BME280;3946;48.958;8.284;2023-05-18T12:39:15;100575.03;;;19.77;43.96
163;BME280;3946;48.958;8.284;2023-05-18T12:42:09;100598.16;;;19.73;45.16
163;BME280;3946;48.958;8.284;2023-05-18T12:44:55;100556.72;;;19.40;43.67
163;BME280;3946;48.958;8.284;2023-05-18T12:47:40;100602.88;;;19.70;45.08
163;BME280;3946;48.958;8.284;2023-05-18T12:50:27;100579.47;;;19.49;44.09
163;BME280;3946;48.958;8.284;2023-05-18T12:53:13;100547.31;;;20.08;43.53
163;BME280;3946;48.958;8.284;2023-05-18T12:55:58;100564.94;;;19.90;43.81
163;BME280;3946;48.958;8.284;2023-05-18T12:58:54;100600.28;;;19.42;45.42
163;BME280;3946;48.958;8.284;2023-05-18T13:01:40;100579.06;;;19.53;44.81
163;BME280;3946;48.958;8.284;2023-05-18T13:04:31;100568.25;;;19.92;44.14
163;BME280;3946;48.958;8.284;2023-05-18T13:07:18;100526.41;;;20.07;42.93
163;BME280;3946;48.958;8.284;2023-05-18T13:10:04;100543.19;;;19.62;42.94
163;BME280;3946;48.958;8.284;2023-05-18T13:12:49;100561.78;;;19.69;43.58
163;BME280;3946;48.958;8.284;2023-05-18T13:15:35;100536.59;;;19.48;43.02
163;BME280;3946;48.958;8.284;2023-05-18T13:18:21;100537.25;;;20.04;42.78
163;BME280;3946;48.958;8.284;2023-05-18T13:21:06;100553.13;;;20.20;43.16
163;BME280;3946;48.958;8.284;2023-05-18T13:23:52;100505.16;;;20.26;42.05
163;BME280;3946;48.958;8.284;2023-05-18T13:26:38;100538.63;;;20.16;42.72
163;BME280;3946;48.958;8.284;2023-05-18T13:29:23;100559.38;;;19.93;43.24
163;BME280;3946;48.958;8.284;2023-05-18T13:32:08;100502.34;;;19.94;41.50
163;BME280;3946;48.958;8.284;2023-05-18T13:34:53;100506.41;;;20.40;41.64
163;BME280;3946;48.958;8.284;2023-05-18T13:37:38;100510.88;;;20.47;41.74
163;BME280;3946;48.958;8.284;2023-05-18T13:40:25;100520.34;;;20.06;42.32
163;BME280;3946;48.958;8.284;2023-05-18T13:43:11;100546.25;;;20.01;43.67
163;BME280;3946;48.958;8.284;2023-05-18T13:45:56;100503.78;;;20.40;41.80
163;BME280;3946;48.958;8.284;2023-05-18T13:48:41;100506.88;;;20.69;41.82
163;BME280;3946;48.958;8.284;2023-05-18T13:51:26;100491.06;;;20.35;41.69
163;BME280;3946;48.958;8.284;2023-05-18T13:54:11;100472.09;;;20.32;40.79
163;BME280;3946;48.958;8.284;2023-05-18T13:56:57;100477.63;;;20.12;41.03
163;BME280;3946;48.958;8.284;2023-05-18T13:59:42;100469.63;;;20.30;41.14
163;BME280;3946;48.958;8.284;2023-05-18T14:02:27;100473.63;;;19.82;41.32
163;BME280;3946;48.958;8.284;2023-05-18T14:05:12;100491.28;;;19.90;41.71
163;BME280;3946;48.958;8.284;2023-05-18T14:07:57;100475.38;;;20.25;41.45
163;BME280;3946;48.958;8.284;2023-05-18T14:10:42;100477.38;;;20.66;41.22
163;BME280;3946;48.958;8.284;2023-05-18T14:13:28;100488.69;;;20.24;42.00
163;BME280;3946;48.958;8.284;2023-05-18T14:16:14;100471.03;;;20.08;41.33
163;BME280;3946;48.958;8.284;2023-05-18T14:18:59;100493.47;;;19.95;42.10
163;BME280;3946;48.958;8.284;2023-05-18T14:21:44;100517.47;;;20.43;42.98
163;BME280;3946;48.958;8.284;2023-05-18T14:24:29;100469.91;;;20.45;41.58
163;BME280;3946;48.958;8.284;2023-05-18T14:27:14;100465.03;;;20.24;41.60
163;BME280;3946;48.958;8.284;2023-05-18T14:30:00;100454.50;;;20.66;41.35
163;BME280;3946;48.958;8.284;2023-05-18T14:32:45;100445.88;;;20.48;40.97
163;BME280;3946;48.958;8.284;2023-05-18T14:35:30;100441.88;;;20.36;40.63
163;BME280;3946;48.958;8.284;2023-05-18T14:38:15;100416.81;;;20.23;39.96
163;BME280;3946;48.958;8.284;2023-05-18T14:41:00;100410.91;;;20.30;39.92
163;BME280;3946;48.958;8.284;2023-05-18T14:43:45;100450.97;;;20.41;41.18
163;BME280;3946;48.958;8.284;2023-05-18T14:46:31;100408.91;;;20.57;39.55
163;BME280;3946;48.958;8.284;2023-05-18T14:49:16;100443.00;;;20.67;41.06
163;BME280;3946;48.958;8.284;2023-05-18T14:52:01;100450.06;;;20.67;41.29
163;BME280;3946;48.958;8.284;2023-05-18T14:54:46;100443.81;;;20.68;40.51
163;BME280;3946;48.958;8.284;2023-05-18T14:57:31;100428.50;;;20.63;40.47
163;BME280;3946;48.958;8.284;2023-05-18T15:00:16;100438.19;;;20.63;40.90
163;BME280;3946;48.958;8.284;2023-05-18T15:03:02;100431.78;;;20.65;41.08
163;BME280;3946;48.958;8.284;2023-05-18T15:05:48;100416.50;;;20.60;40.46
163;BME280;3946;48.958;8.284;2023-05-18T15:08:33;100455.22;;;20.84;41.26
163;BME280;3946;48.958;8.284;2023-05-18T15:11:18;100434.00;;;20.86;41.00
163;BME280;3946;48.958;8.284;2023-05-18T15:14:05;100396.56;;;20.58;39.52